Time;durP1;ratioP1;P1;durP2;ratioP2;P2;SDS_P1;SDS_P2;PMS_P1;PMS_P2;Temp;Humidity;BMP_temperature;BMP_pressure;BME280_temperature;BME280_humidity;BME280_pressure;Samples;Min_cycle;Max_cycle;Signal;HPM_P1;HPM_P2
2023/09/09 00:01:57;;;;;;;12.10;10.03;;;;;;;25.59;49.85;101212.16;2239507;78;50957;-77
2023/09/09 00:04:59;;;;;;;12.20;10.00;;;;;;;25.57;49.86;101208.30;2264393;78;50548;-77
2023/09/09 00:08:02;;;;;;;11.40;9.95;;;;;;;25.57;49.81;101208.30;2239723;78;51469;-77
2023/09/09 00:11:04;;;;;;;12.50;10.15;;;;;;;25.56;49.82;101206.65;2239758;78;50725;-77
2023/09/09 00:14:06;;;;;;;13.78;10.05;;;;;;;25.56;49.75;101203.94;2260050;78;51560;-78
2023/09/09 00:17:08;;;;;;;13.45;9.63;;;;;;;25.55;49.79;101204.97;2245575;78;52390;-76
2023/09/09 00:20:11;;;;;;;11.97;10.23;;;;;;;25.55;49.77;101214.45;2239577;78;50234;-76
2023/09/09 00:23:13;;;;;;;12.53;10.45;;;;;;;25.55;49.73;101214.45;2250919;78;50923;-77
2023/09/09 00:26:15;;;;;;;11.60;10.00;;;;;;;25.54;49.66;101203.84;2180033;80;51658;-76
2023/09/09 00:29:18;;;;;;;14.53;10.20;;;;;;;25.55;49.69;101206.86;2203695;80;51467;-76
2023/09/09 00:32:20;;;;;;;17.30;10.48;;;;;;;25.54;49.65;101199.78;2203304;80;50254;-76
2023/09/09 00:35:22;;;;;;;13.22;9.75;;;;;;;25.53;49.70;101200.81;2160827;80;50693;-76
2023/09/09 00:38:24;;;;;;;13.28;10.43;;;;;;;25.54;49.70;101202.49;2203622;80;50249;-77
2023/09/09 00:41:26;;;;;;;13.60;10.70;;;;;;;25.53;49.65;101206.23;2203563;80;51746;-76
2023/09/09 00:44:29;;;;;;;12.20;10.15;;;;;;;25.52;49.64;101201.88;2203232;80;51563;-77
2023/09/09 00:47:31;;;;;;;12.73;10.10;;;;;;;25.52;49.59;101199.16;2226584;78;51477;-78
2023/09/09 00:50:34;;;;;;;14.20;9.68;;;;;;;25.52;49.61;101204.58;2217134;79;51967;-77
2023/09/09 00:53:36;;;;;;;10.78;9.68;;;;;;;25.52;49.58;101204.58;2240877;79;51419;-78
2023/09/09 00:56:38;;;;;;;13.95;10.28;;;;;;;25.51;49.55;101195.63;2217436;79;50806;-77
2023/09/09 00:59:40;;;;;;;12.88;9.95;;;;;;;25.51;49.54;101201.55;2241178;79;51540;-78
2023/09/09 01:02:43;;;;;;;12.13;10.80;;;;;;;25.51;49.57;101196.13;2240881;79;51531;-77
2023/09/09 01:05:45;;;;;;;12.68;9.70;;;;;;;25.51;49.50;101204.25;2217071;79;51723;-77
2023/09/09 01:08:48;;;;;;;11.30;10.13;;;;;;;25.50;49.51;101198.55;2241158;79;50791;-76
2023/09/09 01:11:50;;;;;;;11.97;10.55;;;;;;;25.51;49.54;101198.84;2242795;79;50671;-76
2023/09/09 01:14:52;;;;;;;11.35;10.05;;;;;;;25.49;49.48;101192.83;2194232;78;52524;-77
2023/09/09 01:17:54;;;;;;;13.10;10.40;;;;;;;25.50;49.49;101201.25;2274426;78;51511;-76
2023/09/09 01:21:10;;;;;;;12.18;9.85;;;;;;;25.49;49.46;101192.83;2281612;78;49947;-76
2023/09/09 01:24:16;;;;;;;10.75;9.63;;;;;;;25.49;49.44;101192.83;2280825;78;51497;-76
2023/09/09 01:27:18;;;;;;;12.07;9.83;;;;;;;25.48;49.43;101185.20;2281666;78;51565;-76
2023/09/09 01:30:20;;;;;;;10.32;9.33;;;;;;;25.47;49.41;101190.32;2276071;77;52373;-76
2023/09/09 01:33:22;;;;;;;11.22;9.93;;;;;;;25.46;49.39;101185.11;2226871;78;50637;-76
2023/09/09 01:36:25;;;;;;;13.00;10.23;;;;;;;25.46;49.45;101185.96;2249936;78;51455;-76
2023/09/09 01:39:27;;;;;;;11.38;9.35;;;;;;;25.46;49.36;101185.11;2251195;78;51085;-76
2023/09/09 01:42:29;;;;;;;11.08;9.30;;;;;;;25.45;49.34;101182.10;2281340;76;51476;-76
2023/09/09 01:45:31;;;;;;;13.08;9.93;;;;;;;25.46;49.38;101183.75;2271849;78;51459;-76
2023/09/09 01:48:34;;;;;;;11.22;9.55;;;;;;;25.46;49.41;101183.75;2247454;78;50641;-77
2023/09/09 01:51:36;;;;;;;11.12;9.48;;;;;;;25.46;49.37;101179.69;2194791;79;50075;-76
2023/09/09 01:54:38;;;;;;;12.35;9.75;;;;;;;25.45;49.36;101182.92;2217848;79;51557;-77
2023/09/09 01:57:40;;;;;;;10.32;9.10;;;;;;;25.45;49.40;101180.75;2218548;79;51438;-76
2023/09/09 02:00:43;;;;;;;13.28;9.83;;;;;;;25.45;49.39;101180.75;2241225;79;51427;-76
2023/09/09 02:03:45;;;;;;;13.18;10.10;;;;;;;25.44;49.39;101179.09;2193593;79;52597;-76
2023/09/09 02:06:47;;;;;;;9.55;8.50;;;;;;;25.43;49.35;101179.59;2242646;79;50594;-76
2023/09/09 02:09:49;;;;;;;11.73;9.80;;;;;;;25.42;49.33;101171.17;2241154;79;50335;-76
2023/09/09 02:12:51;;;;;;;11.65;9.20;;;;;;;25.42;49.33;101172.53;2218306;79;50520;-76
2023/09/09 02:15:55;;;;;;;10.05;9.03;;;;;;;25.42;49.33;101164.40;2241212;79;50747;-77
2023/09/09 02:18:58;;;;;;;11.00;9.65;;;;;;;25.41;49.30;101172.23;2220240;79;51452;-77
2023/09/09 02:22:00;;;;;;;11.60;10.40;;;;;;;25.41;49.28;101167.64;2180512;80;51448;-77
2023/09/09 02:25:03;;;;;;;11.53;8.98;;;;;;;25.40;49.28;101168.66;2227259;79;51407;-76
2023/09/09 02:28:06;;;;;;;10.55;9.18;;;;;;;25.40;49.26;101172.73;2203544;80;51710;-76
2023/09/09 02:31:08;;;;;;;10.45;9.30;;;;;;;25.40;49.23;101170.55;2203651;80;50474;-76
2023/09/09 02:34:10;;;;;;;11.20;10.00;;;;;;;25.39;49.24;101171.08;2227534;79;50315;-77
2023/09/09 02:37:16;;;;;;;11.88;9.65;;;;;;;25.39;49.30;101165.66;2179800;80;50727;-76
2023/09/09 02:40:18;;;;;;;10.13;9.00;;;;;;;25.40;49.24;101169.20;2224179;79;22944;-77
2023/09/09 02:43:20;;;;;;;10.18;8.98;;;;;;;25.39;49.21;101162.95;2203403;80;51698;-76
2023/09/09 02:46:22;;;;;;;12.25;9.18;;;;;;;25.39;49.24;101164.30;2239269;78;51461;-77
2023/09/09 02:49:25;;;;;;;11.83;9.45;;;;;;;25.38;49.22;101165.86;2244100;78;51493;-77
2023/09/09 02:52:28;;;;;;;12.28;9.85;;;;;;;25.37;49.22;101159.63;2242751;79;51245;-76
2023/09/09 02:55:30;;;;;;;11.35;9.40;;;;;;;25.37;49.16;101157.44;2221387;79;51680;-76
2023/09/09 02:58:33;;;;;;;11.20;9.13;;;;;;;25.36;49.22;101159.33;2220775;79;51479;-77
2023/09/09 03:01:35;;;;;;;12.82;9.70;;;;;;;25.37;49.17;101158.27;2195019;79;51516;-76
2023/09/09 03:04:38;;;;;;;13.90;10.03;;;;;;;25.38;49.20;101159.95;2195069;79;50720;-77
2023/09/09 03:07:40;;;;;;;11.63;9.80;;;;;;;25.37;49.13;101156.09;2243153;79;50347;-76
2023/09/09 03:10:42;;;;;;;10.93;9.65;;;;;;;25.36;49.15;101156.62;2194802;79;49998;-76
2023/09/09 03:13:44;;;;;;;14.35;9.40;;;;;;;25.36;49.12;101159.33;2217929;79;50673;-76
2023/09/09 03:16:46;;;;;;;11.08;9.93;;;;;;;25.35;49.07;101154.94;2212496;78;52596;-78
2023/09/09 03:19:49;;;;;;;12.00;9.88;;;;;;;25.35;49.08;101156.30;2281781;78;51444;-76
2023/09/09 03:22:51;;;;;;;12.37;9.83;;;;;;;25.34;49.01;101156.00;2251182;78;51226;-77
2023/09/09 03:25:53;;;;;;;10.32;9.30;;;;;;;25.35;49.05;101162.23;2227315;78;51496;-77
2023/09/09 03:28:55;;;;;;;10.93;9.73;;;;;;;25.34;49.12;101165.48;2281817;77;51442;-77
2023/09/09 03:31:57;;;;;;;12.30;10.00;;;;;;;25.34;49.00;101164.12;2276234;77;52718;-77
2023/09/09 03:35:00;;;;;;;11.97;9.28;;;;;;;25.34;48.86;101164.12;2227136;78;50349;-77
2023/09/09 03:38:02;;;;;;;11.00;9.80;;;;;;;25.33;48.89;101163.83;2281940;78;51513;-76
2023/09/09 03:41:07;;;;;;;12.88;10.00;;;;;;;25.32;48.90;101162.14;2251579;78;52408;-77
2023/09/09 03:44:10;;;;;;;13.48;9.63;;;;;;;25.32;48.94;101168.92;2276023;78;50833;-76
2023/09/09 03:47:12;;;;;;;11.35;10.00;;;;;;;25.33;48.90;101166.53;2215821;78;51527;-76
2023/09/09 03:50:14;;;;;;;11.63;10.43;;;;;;;25.31;48.82;101167.80;2239787;78;51524;-76
2023/09/09 03:53:16;;;;;;;11.80;9.75;;;;;;;25.31;48.87;101173.22;2214876;78;50624;-76
2023/09/09 03:56:19;;;;;;;13.43;9.65;;;;;;;25.31;48.83;101176.75;2239629;78;52562;-76
2023/09/09 03:59:21;;;;;;;10.40;9.33;;;;;;;25.31;48.84;101174.57;2239822;78;50694;-76
2023/09/09 04:02:23;;;;;;;11.30;9.80;;;;;;;25.30;48.87;101168.30;2214662;78;50443;-77
2023/09/09 04:05:25;;;;;;;12.55;9.50;;;;;;;25.29;48.83;101170.70;2239740;78;52486;-77
2023/09/09 04:08:29;;;;;;;11.48;9.83;;;;;;;25.29;48.88;101173.42;2239699;78;50739;-76
2023/09/09 04:11:31;;;;;;;11.18;9.68;;;;;;;25.29;48.88;101169.36;2264652;78;51584;-77
2023/09/09 04:14:33;;;;;;;12.90;9.40;;;;;;;25.30;48.80;101170.18;2239574;78;50337;-77
2023/09/09 04:17:35;;;;;;;10.48;9.38;;;;;;;25.27;48.84;101166.02;2275863;78;50108;-76
2023/09/09 04:20:38;;;;;;;11.70;9.70;;;;;;;25.27;48.84;101166.55;2225776;78;50960;-78
2023/09/09 04:23:40;;;;;;;11.30;9.58;;;;;;;25.27;48.87;101164.67;2249700;78;50226;-76
2023/09/09 04:26:42;;;;;;;11.70;8.98;;;;;;;25.27;48.80;101171.44;2250258;78;50260;-77
2023/09/09 04:29:44;;;;;;;14.28;9.68;;;;;;;25.26;48.91;101171.14;2276319;77;51707;-76
2023/09/09 04:32:47;;;;;;;12.25;9.35;;;;;;;25.27;48.85;101170.62;2281625;78;51533;-77
2023/09/09 04:35:49;;;;;;;11.05;8.88;;;;;;;25.26;48.81;101164.38;2250095;78;51451;-77
2023/09/09 04:38:51;;;;;;;10.15;8.80;;;;;;;25.26;48.79;101162.20;2281929;76;51531;-76
2023/09/09 04:41:53;;;;;;;10.98;9.78;;;;;;;25.26;48.83;101159.48;2281825;78;51464;-76
2023/09/09 04:44:56;;;;;;;11.57;9.03;;;;;;;25.26;48.84;101164.91;2249785;78;51125;-77
2023/09/09 04:47:58;;;;;;;12.30;9.50;;;;;;;25.25;48.80;101162.70;2238829;78;50244;-76
2023/09/09 04:51:00;;;;;;;13.28;9.48;;;;;;;25.25;48.74;101164.58;2255730;78;50596;-76
2023/09/09 04:54:02;;;;;;;13.13;9.65;;;;;;;25.25;48.72;101164.05;2255626;78;52553;-76
2023/09/09 04:57:05;;;;;;;12.05;9.88;;;;;;;25.25;48.75;101159.98;2231206;78;50094;-76
2023/09/09 05:00:10;;;;;;;12.20;10.05;;;;;;;25.24;48.69;101165.11;2256172;78;51412;-76
2023/09/09 05:03:13;;;;;;;12.50;10.50;;;;;;;25.24;48.67;101163.75;2280898;77;50669;-77
2023/09/09 05:06:15;;;;;;;13.15;10.68;;;;;;;25.24;48.64;101162.92;2274602;78;51411;-78
2023/09/09 05:09:17;;;;;;;12.70;9.63;;;;;;;25.24;48.66;101167.81;2230399;78;52367;-76
2023/09/09 05:12:19;;;;;;;12.23;10.23;;;;;;;25.23;48.60;101163.45;2231104;78;52401;-77
2023/09/09 05:15:21;;;;;;;16.73;10.38;;;;;;;25.23;48.58;101169.37;2282205;77;50278;-76
2023/09/09 05:18:24;;;;;;;11.48;10.28;;;;;;;25.23;48.63;101170.23;2233221;78;51852;-76
2023/09/09 05:21:26;;;;;;;18.90;10.93;;;;;;;25.23;48.56;101170.23;2218937;78;50638;-78
2023/09/09 05:24:28;;;;;;;15.70;9.60;;;;;;;25.22;48.51;101171.25;2260270;78;51419;-77
2023/09/09 05:27:30;;;;;;;14.87;10.93;;;;;;;25.23;48.60;101172.08;2215968;78;50246;-76
2023/09/09 05:30:33;;;;;;;12.80;9.40;;;;;;;25.23;48.60;101171.58;2260525;78;50277;-78
2023/09/09 05:33:35;;;;;;;14.23;10.05;;;;;;;25.23;48.60;101168.02;2264598;78;51248;-78
2023/09/09 05:36:37;;;;;;;11.60;10.00;;;;;;;25.28;48.39;101173.13;2240047;78;50289;-77
2023/09/09 05:39:39;;;;;;;11.95;9.73;;;;;;;25.32;48.29;101181.64;2260659;78;51540;-77
2023/09/09 05:42:42;;;;;;;11.70;10.35;;;;;;;25.39;48.14;101179.20;2192183;78;52476;-77
2023/09/09 05:45:44;;;;;;;11.12;9.83;;;;;;;25.51;48.03;101186.64;2222415;78;51421;-76
2023/09/09 05:48:46;;;;;;;12.60;9.95;;;;;;;25.58;47.83;101184.73;2210219;78;50103;-76
2023/09/09 05:51:49;;;;;;;14.00;10.23;;;;;;;25.59;47.73;101181.82;2267382;78;51558;-76
2023/09/09 05:54:51;;;;;;;12.82;10.13;;;;;;;25.64;47.45;101185.24;2222076;78;51543;-76
2023/09/09 05:57:53;;;;;;;13.40;10.30;;;;;;;25.66;47.34;101180.41;2245229;78;52266;-76
2023/09/09 06:00:56;;;;;;;12.28;10.50;;;;;;;25.68;47.24;101185.63;2267452;78;50179;-76
2023/09/09 06:03:58;;;;;;;11.18;10.08;;;;;;;25.68;47.25;101178.32;2267234;78;50613;-76
2023/09/09 06:07:00;;;;;;;12.00;10.38;;;;;;;25.75;47.23;101181.00;2246418;78;52426;-76
2023/09/09 06:10:02;;;;;;;12.60;10.35;;;;;;;25.74;47.57;101179.32;2246633;78;51457;-75
2023/09/09 06:13:04;;;;;;;11.93;10.38;;;;;;;25.79;47.51;101185.78;2267130;78;50246;-76
2023/09/09 06:16:07;;;;;;;11.35;10.15;;;;;;;25.77;47.67;101191.11;2237079;78;50264;-76
2023/09/09 06:19:09;;;;;;;12.63;9.83;;;;;;;25.78;47.63;101196.30;2253213;78;50638;-77
2023/09/09 06:22:11;;;;;;;11.33;9.95;;;;;;;25.83;47.57;101192.94;2242814;79;51598;-76
2023/09/09 06:25:13;;;;;;;11.78;9.58;;;;;;;25.91;47.42;101194.05;2242937;79;51403;-77
2023/09/09 06:28:15;;;;;;;14.80;9.85;;;;;;;25.97;47.21;101187.77;2210545;79;51428;-77
2023/09/09 06:31:18;;;;;;;14.58;9.63;;;;;;;26.02;47.09;101200.65;2235705;78;52404;-74
2023/09/09 06:34:20;;;;;;;14.30;10.15;;;;;;;26.02;47.00;101203.36;2253080;78;50263;-74
2023/09/09 06:37:23;;;;;;;18.95;10.38;;;;;;;26.03;47.32;101202.33;2187481;78;50086;-74
2023/09/09 06:40:26;;;;;;;21.23;10.05;;;;;;;26.02;47.35;101205.58;2252367;78;51527;-73
2023/09/09 06:43:28;;;;;;;17.77;10.20;;;;;;;26.02;47.29;101203.36;2249923;78;50294;-75
2023/09/09 06:46:30;;;;;;;22.15;9.45;;;;;;;26.01;47.39;101199.00;2217487;78;51607;-75
2023/09/09 06:49:35;;;;;;;20.25;9.85;;;;;;;26.01;47.40;101205.25;2263203;78;51389;-74
2023/09/09 06:52:40;;;;;;;21.20;10.03;;;;;;;26.00;47.46;101204.13;2215671;79;22361;-71
2023/09/09 06:55:41;;;;;;;15.30;10.40;;;;;;;25.97;47.50;101206.76;2190349;79;22372;-76
2023/09/09 06:58:43;;;;;;;24.80;10.85;;;;;;;25.96;47.54;101209.14;2235287;79;50684;-76
2023/09/09 07:01:45;;;;;;;20.75;9.80;;;;;;;25.94;47.61;101204.45;2235307;79;51490;-74
2023/09/09 07:04:48;;;;;;;18.67;9.43;;;;;;;25.94;47.69;101213.13;2214859;78;51409;-75
2023/09/09 07:07:50;;;;;;;19.10;9.60;;;;;;;25.97;47.58;101210.83;2245938;78;51561;-75
2023/09/09 07:10:54;;;;;;;14.95;10.05;;;;;;;26.00;47.50;101213.63;2215337;78;52404;-75
2023/09/09 07:13:56;;;;;;;18.57;9.60;;;;;;;26.02;47.46;101217.78;2250720;78;51694;-75
2023/09/09 07:16:58;;;;;;;16.45;10.50;;;;;;;26.03;47.39;101214.53;2212237;78;52252;-75
2023/09/09 07:20:00;;;;;;;16.70;9.38;;;;;;;26.04;47.31;101213.47;2183962;78;50343;-76
2023/09/09 07:23:02;;;;;;;23.73;10.43;;;;;;;26.02;47.42;101212.36;2183749;78;50227;-75
2023/09/09 07:26:05;;;;;;;26.85;10.18;;;;;;;26.02;47.87;101216.92;2259673;77;50361;-75
2023/09/09 07:29:08;;;;;;;33.83;10.28;;;;;;;26.06;47.87;101213.56;2227896;77;51613;-75
2023/09/09 07:32:10;;;;;;;62.23;12.75;;;;;;;26.10;48.01;101211.76;2213748;78;50046;-75
2023/09/09 07:35:12;;;;;;;63.58;12.10;;;;;;;26.12;48.33;101212.38;2226502;79;51100;-76
2023/09/09 07:38:15;;;;;;;60.00;12.43;;;;;;;26.12;48.63;101211.84;2192461;78;50292;-75
2023/09/09 07:41:17;;;;;;;50.48;12.60;;;;;;;26.13;48.76;101208.10;2198751;78;51525;-73
2023/09/09 07:44:20;;;;;;;55.95;12.53;;;;;;;26.14;48.81;101211.11;2194618;78;51169;-73
2023/09/09 07:47:22;;;;;;;59.73;12.25;;;;;;;26.22;48.67;101217.61;2263958;78;50256;-74
2023/09/09 07:50:24;;;;;;;63.73;12.88;;;;;;;26.23;48.92;101217.94;2223696;78;50543;-75
2023/09/09 07:53:27;;;;;;;67.90;13.62;;;;;;;26.23;49.03;101208.44;2230689;78;50213;-75
2023/09/09 07:56:29;;;;;;;69.03;12.73;;;;;;;26.22;48.97;101209.47;2263950;78;51559;-76
2023/09/09 07:59:32;;;;;;;42.90;11.35;;;;;;;26.22;49.08;101214.90;2272147;78;49928;-75
2023/09/09 08:02:35;;;;;;;47.75;11.70;;;;;;;26.23;48.94;101214.37;2258505;77;51517;-76
2023/09/09 08:05:41;;;;;;;44.58;11.43;;;;;;;26.23;48.81;101204.38;2233931;78;51644;-74
2023/09/09 08:08:43;;;;;;;36.68;10.80;;;;;;;26.25;48.61;101213.09;2247751;78;51532;-76
2023/09/09 08:11:45;;;;;;;38.92;11.28;;;;;;;26.26;48.41;101207.99;2221745;78;51458;-75
2023/09/09 08:14:47;;;;;;;32.20;11.08;;;;;;;26.25;48.43;101215.80;2203871;78;52365;-74
2023/09/09 08:17:50;;;;;;;42.73;10.70;;;;;;;26.23;48.47;101209.80;2206730;77;52672;-75
2023/09/09 08:20:52;;;;;;;30.82;10.78;;;;;;;26.23;48.47;101216.58;2221114;78;50292;-73
2023/09/09 08:23:56;;;;;;;35.13;10.58;;;;;;;26.21;48.49;101213.78;2263752;78;50283;-75
2023/09/09 08:26:58;;;;;;;34.03;10.88;;;;;;;26.23;48.45;101215.22;2239257;78;53904;-75
2023/09/09 08:30:00;;;;;;;35.50;10.35;;;;;;;26.20;48.47;101212.10;2215885;78;50364;-76
2023/09/09 08:33:02;;;;;;;29.77;10.13;;;;;;;26.20;48.43;101215.67;2264247;78;50630;-76
2023/09/09 08:36:05;;;;;;;29.45;10.08;;;;;;;26.21;48.43;101209.71;2215707;78;50636;-75
2023/09/09 08:39:08;;;;;;;42.13;10.28;;;;;;;26.19;48.42;101218.05;2239794;78;51540;-74
2023/09/09 08:42:20;;;;;;;40.40;10.28;;;;;;;26.19;48.37;101213.98;2239455;78;51221;-75
2023/09/09 08:45:41;;;;;;;55.45;10.78;;;;;;;26.18;48.44;101215.58;2260065;78;50312;-76
2023/09/09 08:48:43;;;;;;;38.58;10.13;;;;;;;26.17;48.47;101218.80;2267675;78;51545;-76
2023/09/09 08:51:54;;;;;;;42.15;11.18;;;;;;;26.19;48.47;101219.95;2241192;78;52386;-76
2023/09/09 08:54:57;;;;;;;37.60;10.32;;;;;;;26.17;48.44;101216.08;2258618;78;51517;-74
2023/09/09 08:57:59;;;;;;;41.85;11.08;;;;;;;26.16;48.49;101214.97;2259315;78;50802;-74
2023/09/09 09:01:01;;;;;;;43.02;10.08;;;;;;;26.15;48.53;101217.35;2253147;78;50324;-75
2023/09/09 09:04:04;;;;;;;41.83;10.65;;;;;;;26.14;48.54;101227.38;2259428;78;51503;-75
2023/09/09 09:07:06;;;;;;;35.73;9.90;;;;;;;26.13;48.59;101216.23;2224443;77;51259;-75
2023/09/09 09:10:09;;;;;;;42.78;11.45;;;;;;;26.12;48.63;101218.62;2273994;78;51467;-75
2023/09/09 09:13:11;;;;;;;39.18;10.03;;;;;;;26.11;48.64;101219.69;2273649;78;50077;-76
2023/09/09 09:16:13;;;;;;;31.12;9.55;;;;;;;26.07;48.71;101210.31;2239080;78;51686;-75
2023/09/09 09:19:21;;;;;;;43.92;9.78;;;;;;;26.07;48.67;101210.31;2271931;78;51549;-76
2023/09/09 09:22:24;;;;;;;27.35;9.78;;;;;;;26.09;48.62;101208.22;2281571;78;51476;-75
2023/09/09 09:25:27;;;;;;;34.58;9.25;;;;;;;26.05;48.67;101213.80;2251513;78;50436;-76
2023/09/09 09:28:30;;;;;;;26.73;8.63;;;;;;;26.06;48.61;101207.31;2281869;78;50398;-76
2023/09/09 09:31:32;;;;;;;27.48;9.28;;;;;;;26.04;48.62;101206.69;2276267;77;51130;-74
2023/09/09 09:34:34;;;;;;;31.77;9.35;;;;;;;26.02;48.65;101208.78;2251373;78;51428;-75
2023/09/09 09:37:36;;;;;;;28.10;9.20;;;;;;;26.03;48.61;101211.82;2276486;77;50779;-74
2023/09/09 09:40:39;;;;;;;24.30;8.80;;;;;;;26.01;48.64;101207.14;2276225;78;52474;-74
2023/09/09 09:43:41;;;;;;;23.62;9.33;;;;;;;26.02;48.61;101208.78;2251472;78;50685;-76
2023/09/09 09:46:43;;;;;;;23.73;8.70;;;;;;;26.01;48.59;101205.78;2264665;78;51475;-76
2023/09/09 09:49:48;;;;;;;20.27;8.83;;;;;;;26.00;48.61;101202.77;2193003;79;51579;-76
2023/09/09 09:53:04;;;;;;;21.77;8.90;;;;;;;25.99;48.62;101195.67;2241694;79;25566;-76
2023/09/09 09:56:06;;;;;;;20.85;8.55;;;;;;;25.99;48.61;101199.73;2241313;78;51555;-76
2023/09/09 09:59:09;;;;;;;21.37;8.48;;;;;;;25.97;48.60;101189.63;2241285;79;52399;-75
2023/09/09 10:02:11;;;;;;;21.02;8.30;;;;;;;25.98;48.62;101189.95;2241284;79;51512;-75
2023/09/09 10:05:14;;;;;;;21.20;8.23;;;;;;;25.97;48.59;101180.14;2217415;79;52399;-75
2023/09/09 10:08:21;;;;;;;21.23;8.48;;;;;;;25.97;48.62;101182.35;2243550;78;50448;-74
2023/09/09 10:11:25;;;;;;;22.25;8.30;;;;;;;25.95;48.65;101174.13;2260534;78;50528;-75
2023/09/09 10:14:27;;;;;;;22.13;8.73;;;;;;;25.96;48.60;101173.06;2260317;78;50403;-75
2023/09/09 10:17:30;;;;;;;18.07;7.85;;;;;;;25.96;48.63;101169.83;2263167;78;50662;-75
2023/09/09 10:20:32;;;;;;;18.60;7.85;;;;;;;25.95;48.58;101171.42;2268738;78;51285;-75
2023/09/09 10:23:34;;;;;;;18.90;7.65;;;;;;;25.97;48.58;101169.30;2246382;78;49927;-74
2023/09/09 10:26:37;;;;;;;19.95;8.08;;;;;;;25.96;48.59;101164.94;2267572;78;50650;-75
2023/09/09 10:29:39;;;;;;;19.45;8.58;;;;;;;25.96;48.56;101159.51;2220878;78;51910;-74
2023/09/09 10:32:41;;;;;;;18.17;7.97;;;;;;;25.98;48.51;101168.27;2245282;78;51547;-74
2023/09/09 10:35:45;;;;;;;13.60;7.03;;;;;;;25.98;48.51;101162.84;2267816;78;50626;-74
2023/09/09 10:38:49;;;;;;;14.63;7.70;;;;;;;25.97;48.51;101161.16;2246430;77;50389;-73
2023/09/09 10:41:51;;;;;;;17.82;8.35;;;;;;;25.97;48.49;101159.30;2271896;78;51675;-75
2023/09/09 10:44:54;;;;;;;16.95;7.90;;;;;;;25.99;48.45;101161.77;2271774;78;51713;-74
2023/09/09 10:47:58;;;;;;;12.03;7.40;;;;;;;25.99;48.40;101158.53;2259621;78;50673;-74
2023/09/09 10:51:03;;;;;;;16.90;7.62;;;;;;;26.00;48.36;101155.32;2268557;78;51509;-75
2023/09/09 10:54:13;;;;;;;18.40;7.87;;;;;;;26.01;48.36;101152.91;2249692;78;50405;-75
2023/09/09 10:57:12;;;;;;;17.25;6.85;;;;;;;25.98;48.37;101156.88;2270133;78;22375;-73
2023/09/09 11:00:17;;;;;;;19.48;7.85;;;;;;;26.01;48.34;101155.61;2222528;78;50811;-75
2023/09/09 11:03:26;;;;;;;16.85;7.00;;;;;;;26.00;48.35;101155.32;2260938;78;51475;-74
2023/09/09 11:06:31;;;;;;;12.23;7.15;;;;;;;26.01;48.32;101151.55;2267166;78;22726;-74
2023/09/09 11:09:31;;;;;;;12.33;6.85;;;;;;;25.99;48.33;101149.05;2246526;78;22163;-73
2023/09/09 11:12:33;;;;;;;15.95;6.97;;;;;;;26.00;48.30;101142.59;2225089;78;50160;-73
2023/09/09 11:15:35;;;;;;;9.83;7.25;;;;;;;25.99;48.36;101140.08;2267479;78;50840;-75
2023/09/09 11:18:37;;;;;;;16.80;7.03;;;;;;;25.98;48.34;101147.92;2210438;78;51213;-75
2023/09/09 11:21:45;;;;;;;10.05;6.78;;;;;;;25.98;48.34;101148.75;2260342;78;50407;-75
2023/09/09 11:24:47;;;;;;;15.93;7.83;;;;;;;25.99;48.31;101137.38;2260099;78;50410;-73
2023/09/09 11:27:49;;;;;;;13.93;7.12;;;;;;;25.99;48.30;101146.86;2260264;78;50542;-75
2023/09/09 11:30:51;;;;;;;11.95;6.78;;;;;;;25.97;48.32;101138.97;2264624;78;50737;-75
2023/09/09 11:33:57;;;;;;;14.90;7.12;;;;;;;25.98;48.25;101128.41;2239086;78;52425;-75
2023/09/09 11:37:01;;;;;;;11.73;6.50;;;;;;;26.00;48.23;101126.84;2239724;78;50451;-75
2023/09/09 11:40:03;;;;;;;13.45;6.80;;;;;;;25.99;48.24;101134.12;2260333;78;50867;-75
2023/09/09 11:43:06;;;;;;;15.78;6.47;;;;;;;26.01;48.19;101134.74;2214858;78;51479;-75
2023/09/09 11:46:08;;;;;;;11.20;6.58;;;;;;;25.98;48.23;101121.63;2262529;78;50742;-75
2023/09/09 11:49:11;;;;;;;10.85;6.53;;;;;;;25.98;48.26;101119.45;2274558;78;51533;-76
2023/09/09 11:52:14;;;;;;;9.63;6.45;;;;;;;25.95;48.27;101114.48;2251740;78;50263;-75
2023/09/09 11:55:19;;;;;;;10.53;6.65;;;;;;;25.97;48.20;101118.63;2281588;78;50641;-75
2023/09/09 11:58:21;;;;;;;10.15;6.95;;;;;;;25.96;48.25;101119.66;2251524;78;49690;-76
2023/09/09 12:01:23;;;;;;;15.38;6.72;;;;;;;25.99;48.18;101113.79;2251470;78;50693;-76
2023/09/09 12:04:25;;;;;;;10.45;6.40;;;;;;;25.98;48.19;101120.28;2250262;76;51463;-75
2023/09/09 12:07:30;;;;;;;9.70;6.55;;;;;;;25.98;48.20;101109.43;2203864;78;52378;-75
2023/09/09 12:10:33;;;;;;;8.80;5.75;;;;;;;26.00;48.21;101107.86;2281436;77;50289;-75
2023/09/09 12:13:36;;;;;;;9.98;6.30;;;;;;;25.99;48.18;101103.48;2281740;78;50254;-75
2023/09/09 12:16:39;;;;;;;10.72;6.08;;;;;;;25.99;48.19;101111.61;2254917;77;51724;-76
2023/09/09 12:19:41;;;;;;;10.18;6.08;;;;;;;25.99;48.22;101102.13;2273473;77;51570;-73
2023/09/09 12:22:47;;;;;;;12.05;6.25;;;;;;;25.99;48.16;101100.23;2278988;78;51515;-74
2023/09/09 12:25:50;;;;;;;7.78;6.15;;;;;;;26.00;48.15;101097.02;2282199;78;50650;-75
2023/09/09 12:29:11;;;;;;;7.83;5.75;;;;;;;25.99;48.18;101097.52;2281771;78;50387;-76
2023/09/09 12:32:13;;;;;;;9.08;6.10;;;;;;;26.00;48.16;101097.02;2225654;78;51113;-75
2023/09/09 12:35:15;;;;;;;9.25;6.00;;;;;;;25.99;48.19;101094.81;2281632;77;50642;-76
2023/09/09 12:38:18;;;;;;;11.88;6.72;;;;;;;25.99;48.27;101092.62;2281665;78;50182;-76
2023/09/09 12:41:21;;;;;;;11.22;5.72;;;;;;;26.00;48.22;101092.42;2227132;78;50688;-75
2023/09/09 12:44:23;;;;;;;9.33;5.90;;;;;;;25.99;48.22;101088.56;2249707;78;50182;-75
2023/09/09 12:47:26;;;;;;;8.85;5.83;;;;;;;26.00;48.23;101097.02;2246941;78;49950;-73
2023/09/09 12:50:28;;;;;;;8.55;5.75;;;;;;;25.99;48.21;101096.16;2219180;78;50302;-75
2023/09/09 12:53:30;;;;;;;8.48;5.90;;;;;;;26.00;48.22;101095.66;2266880;77;50252;-75
2023/09/09 12:56:32;;;;;;;7.95;5.62;;;;;;;26.02;48.21;101089.47;2220717;78;49598;-76
2023/09/09 12:59:35;;;;;;;8.78;5.30;;;;;;;26.01;48.23;101091.36;2246459;78;51430;-73
2023/09/09 13:02:37;;;;;;;7.40;5.87;;;;;;;25.99;48.29;101092.09;2244881;77;50728;-77
2023/09/09 13:05:39;;;;;;;8.28;5.92;;;;;;;25.97;48.33;101094.23;2267235;78;51532;-75
2023/09/09 13:08:41;;;;;;;8.70;5.60;;;;;;;25.97;48.38;101091.52;2246354;78;50614;-74
2023/09/09 13:11:43;;;;;;;7.35;5.50;;;;;;;25.96;48.36;101083.59;2245118;78;51503;-74
2023/09/09 13:14:46;;;;;;;8.18;5.35;;;;;;;25.96;48.41;101091.72;2244737;78;50276;-74
2023/09/09 13:17:48;;;;;;;9.43;5.30;;;;;;;25.96;48.41;101089.01;2212991;79;50289;-75
2023/09/09 13:20:50;;;;;;;7.42;5.20;;;;;;;25.97;48.39;101083.88;2227510;78;51152;-75
2023/09/09 13:23:52;;;;;;;7.05;5.37;;;;;;;25.98;48.38;101081.49;2223396;80;50601;-75
2023/09/09 13:26:54;;;;;;;6.35;5.37;;;;;;;26.00;48.31;101082.11;2203496;79;51551;-74
2023/09/09 13:29:57;;;;;;;8.10;5.42;;;;;;;26.01;48.29;101075.09;2203616;79;51511;-75
2023/09/09 13:32:59;;;;;;;7.67;5.08;;;;;;;26.02;48.26;101078.63;2223235;80;51519;-75
2023/09/09 13:36:01;;;;;;;6.97;5.20;;;;;;;26.05;48.21;101067.35;2203456;80;50334;-76
2023/09/09 13:39:03;;;;;;;8.05;5.37;;;;;;;26.04;48.23;101074.63;2203602;79;51509;-75
2023/09/09 13:42:06;;;;;;;10.55;5.67;;;;;;;26.04;48.25;101071.09;2203552;79;50725;-76
2023/09/09 13:45:10;;;;;;;6.85;5.25;;;;;;;26.04;48.23;101073.28;2203241;79;52529;-75
2023/09/09 13:48:12;;;;;;;8.08;5.28;;;;;;;26.05;48.27;101074.95;2226602;78;51749;-75
2023/09/09 13:51:14;;;;;;;8.85;5.55;;;;;;;26.06;48.27;101071.71;2215153;78;50662;-75
2023/09/09 13:54:17;;;;;;;9.08;5.37;;;;;;;26.08;48.25;101079.11;2239580;78;51527;-75
2023/09/09 13:57:19;;;;;;;7.20;5.12;;;;;;;26.07;48.26;101069.30;2239836;78;49960;-75